Time;durP1;ratioP1;P1;durP2;ratioP2;P2;SDS_P1;SDS_P2;PMS_P1;PMS_P2;Temp;Humidity;BMP_temperature;BMP_pressure;BME280_temperature;BME280_humidity;BME280_pressure;Samples;Min_cycle;Max_cycle;Signal;HPM_P1;HPM_P2
2023/04/28 00:01:50;;;;;;;9.95;5.18;;;5.60;99.90;;;;;;4976944;28;20054;-87
2023/04/28 00:04:36;;;;;;;10.85;4.70;;;5.50;99.90;;;;;;4975655;28;20066;-88
2023/04/28 00:07:23;;;;;;;9.45;5.68;;;5.50;99.90;;;;;;4975637;28;20089;-88
2023/04/28 00:10:09;;;;;;;10.93;5.25;;;5.40;99.90;;;;;;4976215;28;20549;-88
2023/04/28 00:12:55;;;;;;;15.77;7.03;;;5.40;99.90;;;;;;4992831;28;20068;-87
2023/04/28 00:15:41;;;;;;;11.02;5.30;;;5.40;99.90;;;;;;4976113;28;20065;-83
2023/04/28 00:18:27;;;;;;;10.88;5.50;;;5.30;99.90;;;;;;4992354;28;20433;-88
2023/04/28 00:21:13;;;;;;;10.15;6.20;;;5.30;99.90;;;;;;4991644;28;20038;-87
2023/04/28 00:23:59;;;;;;;11.35;4.97;;;5.20;99.90;;;;;;4991614;28;20137;-87
2023/04/28 00:26:45;;;;;;;12.15;5.50;;;5.20;99.90;;;;;;4976729;28;20108;-87
2023/04/28 00:29:31;;;;;;;12.35;5.35;;;5.20;99.90;;;;;;4977246;28;20411;-88
2023/04/28 00:32:17;;;;;;;10.63;4.90;;;5.20;99.90;;;;;;4976387;28;20192;-89
2023/04/28 00:35:04;;;;;;;11.25;5.30;;;5.10;99.90;;;;;;4961408;28;20054;-89
2023/04/28 00:37:50;;;;;;;16.80;6.03;;;5.10;99.90;;;;;;4976356;28;20058;-88
2023/04/28 00:40:38;;;;;;;10.32;5.68;;;5.10;99.90;;;;;;4992545;28;20046;-87
2023/04/28 00:43:24;;;;;;;12.00;5.47;;;5.00;99.90;;;;;;4992508;28;20085;-88
2023/04/28 00:46:15;;;;;;;14.65;5.88;;;5.00;99.90;;;;;;4976628;28;20061;-89
2023/04/28 00:49:03;;;;;;;11.93;5.78;;;5.00;99.90;;;;;;4974957;28;20062;-89
2023/04/28 00:51:49;;;;;;;10.07;5.93;;;5.00;99.90;;;;;;4974804;28;20057;-82
2023/04/28 00:54:36;;;;;;;14.75;6.22;;;5.00;99.90;;;;;;4974457;28;20132;-88
2023/04/28 00:57:22;;;;;;;11.57;5.93;;;5.00;99.90;;;;;;4974549;28;20086;-89
2023/04/28 01:00:09;;;;;;;12.65;6.32;;;5.00;99.90;;;;;;4975389;28;20148;-85
2023/04/28 01:02:56;;;;;;;11.10;6.22;;;5.00;99.90;;;;;;4961391;28;20046;-88
2023/04/28 01:05:42;;;;;;;14.05;6.97;;;5.00;99.90;;;;;;4974769;28;20514;-87
2023/04/28 01:08:34;;;;;;;12.52;6.50;;;5.00;99.90;;;;;;4973778;28;20057;-89
2023/04/28 01:11:20;;;;;;;13.25;7.10;;;5.00;99.90;;;;;;4974764;28;20069;-89
2023/04/28 01:14:06;;;;;;;10.82;6.38;;;5.00;99.90;;;;;;4960832;28;20054;-88
2023/04/28 01:16:53;;;;;;;12.35;6.15;;;4.90;99.90;;;;;;4974078;28;20054;-89
2023/04/28 01:19:39;;;;;;;12.73;6.75;;;4.90;99.90;;;;;;4973974;28;20403;-88
2023/04/28 01:22:25;;;;;;;15.55;8.48;;;4.90;99.90;;;;;;4991168;28;20105;-87
2023/04/28 01:25:11;;;;;;;14.45;6.72;;;4.90;99.90;;;;;;4988892;28;20421;-87
2023/04/28 01:27:57;;;;;;;11.88;6.65;;;4.90;99.90;;;;;;4991240;28;20050;-88
2023/04/28 01:30:43;;;;;;;13.77;6.82;;;4.90;99.90;;;;;;4973927;28;20050;-89
2023/04/28 01:33:29;;;;;;;11.25;6.72;;;4.90;99.90;;;;;;4990958;28;20414;-82
2023/04/28 01:36:15;;;;;;;16.30;7.95;;;4.90;99.90;;;;;;4973757;28;20714;-88
2023/04/28 01:39:02;;;;;;;16.60;8.77;;;4.90;99.90;;;;;;4974144;28;20097;-87
2023/04/28 01:41:48;;;;;;;13.10;6.93;;;4.90;99.90;;;;;;4976646;28;20517;-87
2023/04/28 01:44:34;;;;;;;10.45;6.85;;;4.90;99.90;;;;;;4990713;28;20184;-81
2023/04/28 01:47:20;;;;;;;13.60;6.72;;;5.00;99.90;;;;;;4972841;28;20054;-84
2023/04/28 01:50:07;;;;;;;12.65;6.18;;;5.00;99.90;;;;;;4973362;28;20050;-83
2023/04/28 01:52:53;;;;;;;15.30;7.15;;;5.00;99.90;;;;;;4972626;28;20077;-83
2023/04/28 01:55:39;;;;;;;10.32;6.18;;;5.10;99.90;;;;;;4964931;28;20526;-86
2023/04/28 01:58:25;;;;;;;12.85;5.78;;;5.00;99.90;;;;;;4973570;28;20058;-85
2023/04/28 02:01:11;;;;;;;13.75;6.65;;;5.20;99.90;;;;;;4973978;28;20142;-84
2023/04/28 02:03:57;;;;;;;11.88;5.75;;;5.20;99.90;;;;;;4974437;28;20057;-86
2023/04/28 02:06:43;;;;;;;11.65;6.70;;;5.20;99.90;;;;;;4973770;28;20054;-80
2023/04/28 02:09:29;;;;;;;11.10;5.70;;;5.20;99.90;;;;;;4974326;28;20125;-83
2023/04/28 02:12:16;;;;;;;11.93;6.15;;;5.30;99.90;;;;;;4974593;28;20062;-85
2023/04/28 02:15:02;;;;;;;11.65;6.05;;;5.30;99.90;;;;;;4991079;28;20081;-84
2023/04/28 02:17:48;;;;;;;11.82;5.80;;;5.30;99.90;;;;;;4972932;28;20082;-83
2023/04/28 02:20:34;;;;;;;12.48;6.97;;;5.30;99.90;;;;;;4960596;28;20046;-87
2023/04/28 02:23:20;;;;;;;14.95;7.07;;;5.30;99.90;;;;;;4974273;28;20410;-84
2023/04/28 02:26:07;;;;;;;14.80;5.63;;;5.30;99.90;;;;;;4972811;28;20061;-85
2023/04/28 02:28:53;;;;;;;13.05;6.45;;;5.40;99.90;;;;;;4972717;28;20065;-84
2023/04/28 02:31:39;;;;;;;13.02;6.30;;;5.40;99.90;;;;;;4973067;28;20479;-79
2023/04/28 02:34:25;;;;;;;11.30;5.68;;;5.40;99.90;;;;;;4973566;28;20050;-82
2023/04/28 02:37:11;;;;;;;13.82;6.28;;;5.40;99.90;;;;;;4973530;28;20058;-83
2023/04/28 02:39:57;;;;;;;12.43;5.90;;;5.50;99.90;;;;;;4960653;28;20105;-85
2023/04/28 02:42:43;;;;;;;12.27;6.28;;;5.50;99.90;;;;;;4974405;28;20540;-84
2023/04/28 02:45:29;;;;;;;13.07;6.28;;;5.50;99.90;;;;;;4959618;28;20446;-82
2023/04/28 02:48:15;;;;;;;12.95;6.30;;;5.50;99.90;;;;;;4959833;28;20096;-86
2023/04/28 02:51:02;;;;;;;14.18;6.18;;;5.50;99.90;;;;;;4991971;28;20054;-82
2023/04/28 02:53:48;;;;;;;11.93;6.75;;;5.50;99.90;;;;;;4995773;28;20149;-89
2023/04/28 02:56:36;;;;;;;12.68;7.18;;;5.50;99.90;;;;;;4997166;28;20054;-86
2023/04/28 02:59:23;;;;;;;14.98;7.20;;;5.50;99.90;;;;;;4982336;28;20049;-86
2023/04/28 03:02:09;;;;;;;13.25;7.40;;;5.50;99.90;;;;;;4996720;28;20058;-84
2023/04/28 03:04:55;;;;;;;16.63;7.70;;;5.50;99.90;;;;;;4996747;28;20057;-82
2023/04/28 03:07:41;;;;;;;10.50;6.20;;;5.50;99.90;;;;;;4983583;28;20140;-85
2023/04/28 03:10:27;;;;;;;14.65;7.13;;;5.50;99.90;;;;;;4996771;28;20050;-84
2023/04/28 03:13:13;;;;;;;14.27;7.50;;;5.50;99.90;;;;;;4996549;28;20525;-86
2023/04/28 03:15:59;;;;;;;15.02;7.93;;;5.60;99.90;;;;;;4983317;28;20054;-84
2023/04/28 03:18:45;;;;;;;13.73;7.72;;;5.60;99.90;;;;;;4996033;28;20050;-85
2023/04/28 03:21:31;;;;;;;15.07;7.78;;;5.60;99.90;;;;;;4982408;28;20060;-85
2023/04/28 03:24:17;;;;;;;15.48;7.82;;;5.60;99.90;;;;;;4981922;28;20057;-79
2023/04/28 03:27:04;;;;;;;13.10;7.38;;;5.70;99.90;;;;;;4995990;28;20050;-87
2023/04/28 03:29:50;;;;;;;15.48;6.85;;;5.70;99.90;;;;;;4994689;28;20162;-82
2023/04/28 03:32:36;;;;;;;12.30;7.65;;;5.70;99.90;;;;;;5012195;28;20049;-87
2023/04/28 03:35:22;;;;;;;15.77;7.47;;;5.70;99.90;;;;;;4983369;28;20107;-83
2023/04/28 03:38:08;;;;;;;16.50;8.20;;;5.80;99.90;;;;;;4983029;28;20512;-85
2023/04/28 03:40:54;;;;;;;15.45;7.90;;;5.80;99.90;;;;;;4988737;28;20401;-89
2023/04/28 03:43:40;;;;;;;17.20;10.07;;;5.80;99.90;;;;;;4994493;28;20075;-84
2023/04/28 03:46:26;;;;;;;16.67;8.70;;;5.80;99.90;;;;;;4998478;28;20058;-80
2023/04/28 03:49:12;;;;;;;16.70;8.90;;;5.90;99.90;;;;;;4995819;28;20383;-86
2023/04/28 03:51:58;;;;;;;18.25;10.00;;;5.90;99.90;;;;;;4994056;28;20108;-88
2023/04/28 03:54:45;;;;;;;13.25;8.57;;;5.90;99.90;;;;;;4994421;28;20053;-89
2023/04/28 03:57:31;;;;;;;15.35;8.52;;;5.90;99.90;;;;;;5012047;28;20260;-85
2023/04/28 04:00:17;;;;;;;17.23;8.68;;;5.90;99.90;;;;;;5013252;28;20050;-78
2023/04/28 04:03:03;;;;;;;21.60;9.45;;;6.00;99.90;;;;;;4991844;28;20053;-84
2023/04/28 04:05:49;;;;;;;19.77;10.35;;;6.00;99.90;;;;;;4987867;28;20050;-87
2023/04/28 04:08:35;;;;;;;14.60;8.15;;;6.00;99.90;;;;;;4994700;28;20054;-85
2023/04/28 04:11:21;;;;;;;20.55;9.57;;;6.00;99.90;;;;;;5011722;28;20101;-86
2023/04/28 04:14:07;;;;;;;17.42;8.98;;;6.00;99.90;;;;;;4995334;28;20053;-81
2023/04/28 04:16:54;;;;;;;19.88;10.20;;;6.10;99.90;;;;;;4982269;28;20050;-80
2023/04/28 04:19:40;;;;;;;16.13;9.25;;;6.10;99.90;;;;;;4982263;28;20069;-84
2023/04/28 04:22:26;;;;;;;17.83;8.70;;;6.10;99.90;;;;;;5011749;28;20112;-87
2023/04/28 04:25:12;;;;;;;16.23;9.25;;;6.10;99.90;;;;;;4991453;28;20141;-86
2023/04/28 04:27:58;;;;;;;18.10;9.10;;;6.10;99.90;;;;;;5004865;28;20049;-86
2023/04/28 04:30:44;;;;;;;15.60;8.25;;;6.20;99.90;;;;;;4994304;28;20704;-86
2023/04/28 04:33:30;;;;;;;18.80;9.15;;;6.20;99.90;;;;;;4980783;28;20065;-85
2023/04/28 04:36:16;;;;;;;15.90;9.05;;;6.20;99.90;;;;;;5012030;28;20124;-86
2023/04/28 04:39:02;;;;;;;17.33;9.07;;;6.20;99.90;;;;;;5009559;28;20069;-87
2023/04/28 04:41:49;;;;;;;15.63;8.25;;;6.20;99.90;;;;;;4994762;28;20057;-88
2023/04/28 04:44:35;;;;;;;17.77;9.07;;;6.20;99.90;;;;;;4994962;28;20054;-82
2023/04/28 04:47:21;;;;;;;15.27;8.55;;;6.20;99.90;;;;;;4995184;28;20128;-85
2023/04/28 04:50:07;;;;;;;23.65;9.48;;;6.20;99.90;;;;;;4994654;28;20054;-87
2023/04/28 04:52:55;;;;;;;17.38;9.82;;;6.20;99.90;;;;;;5010669;28;20060;-83
2023/04/28 04:55:41;;;;;;;19.40;9.68;;;6.30;99.90;;;;;;4993284;28;20100;-83
2023/04/28 04:58:27;;;;;;;15.75;8.40;;;6.30;99.90;;;;;;5009619;28;20566;-87
2023/04/28 05:01:13;;;;;;;17.63;9.40;;;6.30;99.90;;;;;;4980513;28;20088;-89
2023/04/28 05:03:59;;;;;;;16.77;9.60;;;6.40;99.90;;;;;;4993973;28;20052;-86
2023/04/28 05:06:45;;;;;;;17.15;10.60;;;6.40;99.90;;;;;;4981525;28;20049;-87
2023/04/28 05:09:32;;;;;;;23.83;11.20;;;6.40;99.90;;;;;;4981150;28;20474;-87
2023/04/28 05:12:18;;;;;;;20.13;9.85;;;6.40;99.90;;;;;;4995849;28;20057;-82
2023/04/28 05:15:07;;;;;;;20.63;10.15;;;6.50;99.90;;;;;;4994106;28;20085;-81
2023/04/28 05:17:53;;;;;;;18.88;10.93;;;6.50;99.90;;;;;;4986158;28;20092;-87
2023/04/28 05:20:39;;;;;;;21.05;11.57;;;6.50;99.90;;;;;;4992819;28;20201;-81
2023/04/28 05:23:25;;;;;;;19.90;10.35;;;6.50;99.90;;;;;;5011053;28;20053;-86
2023/04/28 05:26:12;;;;;;;21.00;10.02;;;6.60;99.90;;;;;;5010637;28;20137;-87
2023/04/28 05:28:58;;;;;;;23.45;11.18;;;6.60;99.90;;;;;;4992992;28;20545;-88
2023/04/28 05:31:44;;;;;;;23.88;11.55;;;6.70;99.90;;;;;;4972194;28;20058;-85
2023/04/28 05:34:30;;;;;;;20.98;10.55;;;6.70;99.90;;;;;;4993204;28;20675;-84
2023/04/28 05:37:16;;;;;;;21.00;11.07;;;6.70;99.90;;;;;;5010326;28;20054;-82
2023/04/28 05:40:02;;;;;;;20.50;9.75;;;6.80;99.90;;;;;;5010861;28;20080;-86
2023/04/28 05:42:48;;;;;;;24.13;11.50;;;6.80;99.90;;;;;;4993083;28;20136;-84
2023/04/28 05:45:35;;;;;;;22.40;11.48;;;6.90;99.90;;;;;;5010828;28;20054;-85
2023/04/28 05:48:21;;;;;;;18.10;10.20;;;6.90;99.90;;;;;;5010729;28;20200;-86
2023/04/28 05:51:07;;;;;;;22.35;10.15;;;6.90;99.90;;;;;;5010103;28;20050;-87
2023/04/28 05:53:53;;;;;;;20.42;9.95;;;7.00;99.90;;;;;;4992289;28;20080;-83
2023/04/28 05:56:39;;;;;;;21.25;10.93;;;7.00;99.90;;;;;;4979865;28;20049;-87
2023/04/28 05:59:27;;;;;;;21.65;10.10;;;7.10;99.90;;;;;;4991721;28;20061;-83
2023/04/28 06:02:13;;;;;;;20.23;11.18;;;7.10;99.90;;;;;;4992124;28;20053;-84
2023/04/28 06:04:59;;;;;;;17.83;9.25;;;7.20;99.90;;;;;;4992005;28;20502;-88
2023/04/28 06:07:45;;;;;;;17.75;8.77;;;7.20;99.90;;;;;;4991840;28;20061;-87
2023/04/28 06:10:31;;;;;;;18.95;9.50;;;7.30;99.90;;;;;;4993408;28;20054;-88
2023/04/28 06:13:17;;;;;;;18.17;9.90;;;7.30;99.90;;;;;;4980299;28;20046;-85
2023/04/28 06:16:03;;;;;;;22.38;9.65;;;7.40;99.90;;;;;;4992768;28;20062;-82
2023/04/28 06:18:50;;;;;;;17.90;9.38;;;7.40;99.90;;;;;;4992635;28;20050;-89
2023/04/28 06:21:36;;;;;;;20.33;9.80;;;7.50;99.90;;;;;;4993153;28;20075;-85
2023/04/28 06:24:22;;;;;;;18.63;9.40;;;7.50;99.90;;;;;;4991917;28;20124;-85
2023/04/28 06:27:08;;;;;;;14.43;8.57;;;7.60;99.90;;;;;;4991755;28;20045;-85
2023/04/28 06:29:54;;;;;;;22.70;9.00;;;7.70;99.90;;;;;;4991805;28;20501;-85
2023/04/28 06:32:40;;;;;;;17.42;9.65;;;7.60;99.90;;;;;;4984915;28;20145;-85
2023/04/28 06:35:27;;;;;;;22.00;11.30;;;7.80;99.90;;;;;;4979466;28;20081;-80
2023/04/28 06:38:13;;;;;;;15.57;8.68;;;7.80;99.90;;;;;;4990864;28;20065;-84
2023/04/28 06:40:59;;;;;;;17.42;9.10;;;7.80;99.90;;;;;;4980574;28;20140;-84
2023/04/28 06:43:45;;;;;;;17.52;9.40;;;7.80;99.90;;;;;;4996698;28;20072;-82
2023/04/28 06:46:31;;;;;;;19.08;10.32;;;7.90;99.90;;;;;;5010417;28;20149;-84
2023/04/28 06:49:17;;;;;;;20.48;9.73;;;7.90;99.90;;;;;;4993061;28;20061;-85
2023/04/28 06:52:03;;;;;;;17.45;10.07;;;8.00;99.90;;;;;;4991634;28;20405;-80
2023/04/28 06:54:50;;;;;;;20.00;8.77;;;8.10;99.90;;;;;;5009712;28;20560;-88
2023/04/28 06:57:36;;;;;;;15.15;8.65;;;8.10;99.90;;;;;;4991121;28;20053;-86
2023/04/28 07:00:23;;;;;;;15.48;8.98;;;8.10;99.90;;;;;;4991150;28;20045;-83
2023/04/28 07:03:08;;;;;;;17.95;9.00;;;8.10;99.90;;;;;;4993071;28;20054;-85
2023/04/28 07:05:54;;;;;;;16.05;9.13;;;8.10;99.90;;;;;;4992046;28;20140;-81
2023/04/28 07:08:41;;;;;;;23.70;10.65;;;8.10;99.90;;;;;;4989882;28;20058;-86
2023/04/28 07:11:27;;;;;;;19.15;9.85;;;8.10;99.90;;;;;;4991293;28;20072;-82
2023/04/28 07:14:13;;;;;;;16.08;9.20;;;8.10;99.90;;;;;;4995831;28;20157;-84
2023/04/28 07:16:59;;;;;;;18.90;9.45;;;8.10;99.90;;;;;;4979569;28;20395;-86
2023/04/28 07:19:45;;;;;;;16.35;8.88;;;8.20;99.90;;;;;;4992085;28;20054;-85
2023/04/28 07:22:31;;;;;;;15.73;8.80;;;8.10;99.90;;;;;;4994006;28;20052;-87
2023/04/28 07:25:17;;;;;;;21.80;9.63;;;8.20;99.90;;;;;;4993321;28;20167;-89
2023/04/28 07:28:04;;;;;;;15.68;9.70;;;8.20;99.90;;;;;;4993508;28;20529;-88
2023/04/28 07:30:50;;;;;;;19.77;9.85;;;8.20;99.90;;;;;;4992268;28;20145;-89
2023/04/28 07:33:36;;;;;;;16.60;9.50;;;8.20;99.90;;;;;;4992590;28;20064;-90
2023/04/28 07:36:23;;;;;;;21.13;10.10;;;8.30;99.90;;;;;;4994082;28;20152;-89
2023/04/28 07:39:09;;;;;;;17.70;9.73;;;8.30;99.90;;;;;;5012088;28;20054;-88
2023/04/28 07:41:56;;;;;;;18.02;10.10;;;8.30;99.90;;;;;;5012755;28;20060;-87
2023/04/28 07:44:42;;;;;;;18.23;9.27;;;8.30;99.90;;;;;;4994690;28;20054;-87
2023/04/28 07:47:28;;;;;;;19.35;9.05;;;8.30;99.90;;;;;;4982304;28;20053;-88
2023/04/28 07:50:15;;;;;;;16.85;10.02;;;8.40;99.90;;;;;;4993241;28;20119;-88
2023/04/28 07:53:01;;;;;;;18.77;9.65;;;8.50;99.90;;;;;;4995843;28;20163;-88
2023/04/28 07:55:47;;;;;;;19.08;10.18;;;8.50;99.90;;;;;;5011981;28;20490;-89
2023/04/28 07:58:33;;;;;;;23.05;10.55;;;8.50;99.90;;;;;;4995071;28;20054;-89
2023/04/28 08:01:19;;;;;;;19.70;10.10;;;8.60;99.90;;;;;;4994617;28;20061;-88
2023/04/28 08:04:05;;;;;;;21.73;10.05;;;8.60;99.90;;;;;;4981837;28;20054;-88
2023/04/28 08:06:52;;;;;;;23.40;9.32;;;8.60;99.90;;;;;;4982013;28;20103;-89
2023/04/28 08:09:41;;;;;;;16.10;9.63;;;8.60;99.90;;;;;;5010514;28;20138;-84
2023/04/28 08:12:27;;;;;;;21.27;9.88;;;8.60;99.90;;;;;;5012283;28;20128;-89
2023/04/28 08:15:13;;;;;;;19.17;9.80;;;8.50;99.90;;;;;;4999431;28;20060;-88
2023/04/28 08:17:59;;;;;;;16.35;9.38;;;8.50;99.90;;;;;;4982212;28;20637;-89
2023/04/28 08:20:45;;;;;;;21.45;11.35;;;8.50;99.90;;;;;;4994951;28;20050;-87
2023/04/28 08:23:31;;;;;;;19.05;9.68;;;8.50;99.90;;;;;;4982389;28;20148;-88
2023/04/28 08:26:17;;;;;;;19.88;9.93;;;8.60;99.90;;;;;;4994001;28;20085;-88
2023/04/28 08:29:04;;;;;;;19.83;9.95;;;8.60;99.90;;;;;;4995175;28;20107;-87
2023/04/28 08:31:50;;;;;;;20.50;11.25;;;8.70;99.90;;;;;;4995623;28;20409;-84
2023/04/28 08:34:36;;;;;;;20.45;11.48;;;8.80;99.90;;;;;;4993498;28;20065;-85
2023/04/28 08:37:22;;;;;;;17.65;10.68;;;9.00;99.90;;;;;;4997547;28;20057;-85
2023/04/28 08:40:08;;;;;;;20.35;11.93;;;9.20;99.90;;;;;;4992853;28;20081;-82
2023/04/28 08:42:54;;;;;;;18.65;11.52;;;9.40;99.90;;;;;;4981879;28;20061;-84
2023/04/28 08:45:41;;;;;;;21.73;10.65;;;9.50;99.90;;;;;;4993634;28;20050;-85
2023/04/28 08:48:32;;;;;;;20.77;9.73;;;9.60;99.90;;;;;;4993368;28;20441;-85
2023/04/28 08:51:31;;;;;;;19.63;9.90;;;9.70;99.90;;;;;;5011618;28;20061;-86
2023/04/28 08:54:19;;;;;;;18.20;10.93;;;9.90;99.90;;;;;;4993398;28;20054;-85
2023/04/28 08:57:10;;;;;;;18.33;10.20;;;10.00;99.90;;;;;;4981276;28;20056;-85
2023/04/28 08:59:58;;;;;;;16.52;8.77;;;10.20;99.90;;;;;;4966578;28;20456;-86
2023/04/28 09:02:44;;;;;;;16.65;9.85;;;10.40;99.90;;;;;;4994231;28;20531;-86
2023/04/28 09:05:30;;;;;;;20.95;11.05;;;10.60;99.90;;;;;;4981540;28;20108;-86
2023/04/28 09:08:17;;;;;;;17.25;10.27;;;10.70;99.90;;;;;;4979910;28;20060;-87
2023/04/28 09:11:08;;;;;;;17.30;9.55;;;10.90;99.90;;;;;;4980788;28;20112;-87
2023/04/28 09:14:11;;;;;;;16.85;9.23;;;11.10;99.90;;;;;;4980521;28;20057;-88
2023/04/28 09:16:57;;;;;;;22.98;10.30;;;11.20;99.90;;;;;;5011550;28;20046;-85
2023/04/28 09:19:43;;;;;;;18.88;8.95;;;11.30;99.90;;;;;;5010960;28;20406;-88
2023/04/28 09:22:29;;;;;;;26.98;10.13;;;11.40;99.90;;;;;;4981082;28;20054;-86
2023/04/28 09:25:16;;;;;;;16.17;9.43;;;11.30;99.90;;;;;;4996506;28;20057;-84
2023/04/28 09:28:20;;;;;;;13.43;8.60;;;11.60;99.90;;;;;;5010963;28;20056;-84
2023/04/28 09:31:22;;;;;;;19.27;10.52;;;12.10;99.90;;;;;;4980390;28;20133;-88
2023/04/28 09:34:10;;;;;;;33.45;17.85;;;12.20;99.90;;;;;;5008447;28;20085;-83
2023/04/28 09:36:56;;;;;;;18.60;8.63;;;12.10;99.90;;;;;;5008233;28;20058;-84
2023/04/28 09:39:44;;;;;;;14.95;8.45;;;12.00;99.90;;;;;;5010135;28;20390;-84
2023/04/28 09:42:41;;;;;;;14.23;9.05;;;12.20;99.90;;;;;;4993126;28;20100;-85
2023/04/28 09:45:41;;;;;;;15.95;9.10;;;12.20;99.90;;;;;;4980341;28;20153;-86
2023/04/28 09:48:28;;;;;;;14.70;8.90;;;12.30;99.90;;;;;;4991939;28;20517;-87
2023/04/28 09:51:19;;;;;;;14.27;8.80;;;12.30;99.90;;;;;;4979509;28;20054;-87
2023/04/28 09:54:07;;;;;;;17.15;8.60;;;12.50;99.90;;;;;;4992250;28;20398;-87
2023/04/28 09:56:54;;;;;;;12.40;8.80;;;12.60;99.90;;;;;;4980004;28;20065;-84
2023/04/28 09:59:44;;;;;;;14.90;8.32;;;12.80;99.90;;;;;;5011480;28;20041;-84
2023/04/28 10:02:30;;;;;;;16.35;8.38;;;12.90;99.90;;;;;;5009251;28;20065;-79
2023/04/28 10:05:18;;;;;;;13.75;8.20;;;13.10;99.90;;;;;;4993115;28;20073;-82
2023/04/28 10:08:04;;;;;;;16.55;9.13;;;13.20;99.90;;;;;;4992121;28;20704;-87
2023/04/28 10:10:55;;;;;;;15.48;8.80;;;13.20;99.90;;;;;;5010051;28;20096;-86
2023/04/28 10:13:42;;;;;;;11.88;8.25;;;13.40;99.90;;;;;;4993141;28;20061;-87
2023/04/28 10:16:31;;;;;;;22.20;13.30;;;13.40;99.90;;;;;;4993312;28;20105;-82
2023/04/28 10:19:17;;;;;;;15.70;9.23;;;13.50;99.90;;;;;;5008060;28;20087;-81
2023/04/28 10:22:18;;;;;;;14.75;9.48;;;13.60;99.90;;;;;;4992282;28;20518;-86
2023/04/28 10:25:17;;;;;;;17.08;9.05;;;13.60;99.90;;;;;;4990501;28;20093;-86
2023/04/28 10:28:06;;;;;;;15.70;8.90;;;13.50;99.90;;;;;;4991330;28;20057;-86
2023/04/28 10:31:11;;;;;;;20.70;10.63;;;13.40;99.90;;;;;;4995221;28;20058;-88
2023/04/28 10:34:21;;;;;;;14.35;8.80;;;13.20;99.90;;;;;;4979700;28;20172;-89
2023/04/28 10:37:07;;;;;;;16.95;8.75;;;13.10;99.90;;;;;;4991755;28;20054;-88
2023/04/28 10:40:38;;;;;;;16.42;9.15;;;13.00;99.90;;;;;;4991757;28;20502;-87
2023/04/28 10:43:24;;;;;;;16.67;8.57;;;13.10;99.90;;;;;;5011388;28;20041;-88
2023/04/28 10:46:10;;;;;;;16.58;9.85;;;12.80;99.90;;;;;;4991363;28;20057;-88
2023/04/28 10:48:56;;;;;;;18.88;9.25;;;12.50;99.90;;;;;;4991136;28;20065;-88
2023/04/28 10:51:42;;;;;;;13.98;8.43;;;12.30;99.90;;;;;;4959812;28;20054;-88
2023/04/28 10:54:31;;;;;;;14.20;8.30;;;12.10;99.90;;;;;;4976886;28;20116;-88
2023/04/28 10:57:17;;;;;;;17.08;10.10;;;12.00;99.90;;;;;;4974102;28;20058;-88
2023/04/28 11:00:26;;;;;;;15.93;9.13;;;12.00;99.90;;;;;;4990057;28;20813;-86
2023/04/28 11:03:50;;;;;;;22.73;10.85;;;11.90;99.90;;;;;;4990986;28;20042;-85
2023/04/28 11:06:39;;;;;;;16.67;9.27;;;11.90;99.90;;;;;;4959954;28;20043;-84
2023/04/28 11:09:48;;;;;;;18.95;11.05;;;11.80;99.90;;;;;;4990367;28;20054;-82
2023/04/28 11:12:34;;;;;;;19.70;10.85;;;11.80;99.90;;;;;;4975964;28;20062;-82
2023/04/28 11:15:20;;;;;;;15.50;10.75;;;11.80;99.90;;;;;;4963387;28;20414;-81
2023/04/28 11:18:14;;;;;;;17.77;11.05;;;11.80;99.90;;;;;;4975614;28;20509;-84
2023/04/28 11:21:00;;;;;;;17.23;10.80;;;11.80;99.90;;;;;;4993299;28;20057;-82
2023/04/28 11:23:47;;;;;;;21.48;12.18;;;11.80;99.90;;;;;;4993570;28;20050;-83
2023/04/28 11:26:36;;;;;;;22.10;10.75;;;11.70;99.90;;;;;;4963190;28;20057;-84
2023/04/28 11:29:36;;;;;;;16.42;10.32;;;11.70;99.90;;;;;;4992476;28;20588;-84
2023/04/28 11:32:33;;;;;;;17.38;10.73;;;11.70;99.90;;;;;;4993280;28;20832;-81
2023/04/28 11:35:19;;;;;;;20.50;10.88;;;11.50;99.90;;;;;;4963100;28;20166;-83
2023/04/28 11:38:05;;;;;;;16.50;10.27;;;11.40;99.90;;;;;;4975408;28;20046;-82
2023/04/28 11:40:58;;;;;;;22.83;11.70;;;11.30;99.90;;;;;;4993936;28;20061;-83
2023/04/28 11:43:44;;;;;;;16.52;11.00;;;11.30;99.90;;;;;;4975344;28;20779;-84
2023/04/28 11:46:30;;;;;;;17.45;12.05;;;11.30;99.90;;;;;;4976408;28;20141;-82
2023/04/28 11:49:17;;;;;;;20.60;12.63;;;11.10;99.90;;;;;;4974632;28;20054;-83
2023/04/28 11:52:05;;;;;;;22.08;12.55;;;11.10;99.90;;;;;;4993481;28;20062;-83
2023/04/28 11:54:57;;;;;;;19.52;11.73;;;11.00;99.90;;;;;;4992922;28;20571;-82
2023/04/28 11:57:43;;;;;;;18.92;12.23;;;10.90;99.90;;;;;;4993246;28;20096;-82
2023/04/28 12:00:29;;;;;;;22.20;12.75;;;10.90;99.90;;;;;;4993496;28;20058;-83
2023/04/28 12:03:16;;;;;;;19.23;11.95;;;10.90;99.90;;;;;;4993404;28;20065;-82
2023/04/28 12:06:02;;;;;;;18.85;11.82;;;11.10;99.90;;;;;;4993381;28;20042;-82
2023/04/28 12:08:50;;;;;;;20.05;12.68;;;11.10;99.90;;;;;;4975516;28;20065;-83
2023/04/28 12:11:36;;;;;;;21.40;12.65;;;11.00;99.90;;;;;;4974879;28;20142;-83
2023/04/28 12:14:23;;;;;;;36.35;19.10;;;11.00;99.90;;;;;;4975542;28;20054;-83
2023/04/28 12:17:22;;;;;;;20.30;13.25;;;11.00;99.90;;;;;;4975735;28;20160;-82
2023/04/28 12:20:11;;;;;;;22.67;14.45;;;10.90;99.90;;;;;;4974263;28;20109;-82
2023/04/28 12:22:57;;;;;;;21.60;12.52;;;10.90;99.90;;;;;;4975845;28;20054;-82
2023/04/28 12:25:44;;;;;;;22.13;13.30;;;10.90;99.90;;;;;;4975453;28;20050;-82
2023/04/28 12:28:38;;;;;;;20.27;13.63;;;10.80;99.90;;;;;;4975437;28;20054;-81
2023/04/28 12:31:24;;;;;;;22.83;14.02;;;10.90;99.90;;;;;;4992385;28;20120;-80
2023/04/28 12:34:11;;;;;;;24.77;14.18;;;10.90;99.90;;;;;;4975457;28;20050;-82
2023/04/28 12:36:57;;;;;;;18.13;12.85;;;11.00;99.90;;;;;;4974600;28;20042;-82
2023/04/28 12:39:43;;;;;;;26.00;15.68;;;10.90;99.90;;;;;;4992175;28;20604;-82
2023/04/28 12:42:30;;;;;;;21.55;13.85;;;11.00;99.90;;;;;;4975047;28;20061;-80
2023/04/28 12:45:16;;;;;;;25.08;14.80;;;11.00;99.90;;;;;;4974105;28;20054;-82
2023/04/28 12:48:02;;;;;;;21.70;14.63;;;11.00;99.90;;;;;;4991974;28;20149;-80
2023/04/28 12:50:48;;;;;;;21.55;14.35;;;11.00;99.90;;;;;;4975357;28;20080;-80
2023/04/28 12:53:34;;;;;;;22.35;14.20;;;10.90;99.90;;;;;;4994287;28;20538;-81
2023/04/28 12:56:20;;;;;;;26.63;16.75;;;10.80;99.90;;;;;;4993242;28;20077;-82
2023/04/28 12:59:06;;;;;;;21.27;14.10;;;10.70;99.90;;;;;;5010192;28;20139;-81
2023/04/28 13:01:52;;;;;;;24.02;15.07;;;10.70;99.90;;;;;;4993485;28;20517;-81
2023/04/28 13:04:39;;;;;;;22.35;14.50;;;10.60;99.90;;;;;;5008338;28;20058;-81
2023/04/28 13:07:25;;;;;;;22.20;15.18;;;10.60;99.90;;;;;;4991947;28;20057;-82
2023/04/28 13:10:12;;;;;;;22.60;15.15;;;10.60;99.90;;;;;;4992104;28;20108;-81
2023/04/28 13:12:58;;;;;;;24.17;14.88;;;10.50;99.90;;;;;;4992782;28;20073;-80
2023/04/28 13:15:45;;;;;;;24.52;15.43;;;10.50;99.90;;;;;;4992803;28;20112;-80
2023/04/28 13:18:31;;;;;;;23.77;13.20;;;10.50;99.90;;;;;;4994053;28;20096;-81
2023/04/28 13:21:17;;;;;;;20.63;13.18;;;10.50;99.90;;;;;;4993408;28;20848;-82
2023/04/28 13:24:03;;;;;;;26.35;14.25;;;10.50;99.90;;;;;;4994352;28;20054;-80
2023/04/28 13:26:50;;;;;;;27.63;15.07;;;10.50;99.90;;;;;;4995302;28;20058;-81
2023/04/28 13:29:36;;;;;;;19.35;12.60;;;10.50;99.90;;;;;;4993526;28;20058;-80
2023/04/28 13:32:22;;;;;;;27.77;15.80;;;10.40;99.90;;;;;;5010003;28;20111;-80
2023/04/28 13:35:09;;;;;;;23.45;14.10;;;10.40;99.90;;;;;;4992430;28;20180;-81
2023/04/28 13:38:00;;;;;;;24.17;14.73;;;10.40;99.90;;;;;;5011780;28;20103;-82
2023/04/28 13:40:46;;;;;;;25.85;15.25;;;10.30;99.90;;;;;;5009247;28;20060;-82
2023/04/28 13:43:33;;;;;;;24.90;15.57;;;10.30;99.90;;;;;;4994044;28;20160;-82
2023/04/28 13:46:19;;;;;;;24.27;15.45;;;10.30;99.90;;;;;;5009892;28;20061;-81
2023/04/28 13:49:06;;;;;;;27.30;16.05;;;10.20;99.90;;;;;;4979692;28;20475;-82
2023/04/28 13:51:52;;;;;;;33.13;16.60;;;10.20;99.90;;;;;;4992363;28;20568;-82
2023/04/28 13:54:38;;;;;;;27.13;14.98;;;10.20;99.90;;;;;;4992347;28;20100;-81
2023/04/28 13:57:24;;;;;;;21.27;13.55;;;10.20;99.90;;;;;;4992342;28;20145;-81
2023/04/28 14:00:11;;;;;;;24.83;14.90;;;10.10;99.90;;;;;;5009617;28;20049;-83
2023/04/28 14:02:58;;;;;;;22.83;13.60;;;10.10;99.90;;;;;;4992771;28;20494;-82
2023/04/28 14:05:44;;;;;;;20.30;13.15;;;10.10;99.90;;;;;;4991823;28;20089;-82
2023/04/28 14:08:31;;;;;;;23.63;15.23;;;10.00;99.90;;;;;;4991664;28;20594;-82
2023/04/28 14:11:17;;;;;;;25.17;15.57;;;10.00;99.90;;;;;;5009320;28;20582;-82
2023/04/28 14:14:03;;;;;;;32.75;17.75;;;10.00;99.90;;;;;;5010734;28;20124;-81
2023/04/28 14:16:49;;;;;;;34.30;17.10;;;10.00;99.90;;;;;;4992030;28;20149;-84
2023/04/28 14:19:35;;;;;;;25.85;14.30;;;10.00;99.90;;;;;;5009230;28;20054;-81
2023/04/28 14:22:21;;;;;;;30.48;16.67;;;10.00;99.90;;;;;;5009437;28;20059;-81